Time;durP1;ratioP1;P1;durP2;ratioP2;P2;SDS_P1;SDS_P2;PMS_P1;PMS_P2;Temp;Humidity;BMP_temperature;BMP_pressure;BME280_temperature;BME280_humidity;BME280_pressure;Samples;Min_cycle;Max_cycle;Signal;HPM_P1;HPM_P2
2021/06/06 00:04:45;;;;;;;21.0;18.9;;;;;;;16.2;66.1;102150;;;;
2021/06/06 00:06:45;;;;;;;21.0;18.9;;;;;;;16.1;66.8;102150;;;;
2021/06/06 00:08:45;;;;;;;20.0;17.9;;;;;;;16.2;66.8;102150;;;;
2021/06/06 00:10:45;;;;;;;20.0;17.9;;;;;;;16.3;66.9;102150;;;;
2021/06/06 00:12:45;;;;;;;20.0;17.9;;;;;;;16.2;66.7;102150;;;;
2021/06/06 00:16:46;;;;;;;20.0;17.9;;;;;;;16.1;66.9;102160;;;;
2021/06/06 00:20:45;;;;;;;20.0;17.9;;;;;;;16.2;66.0;102150;;;;
2021/06/06 00:26:45;;;;;;;20.0;17.9;;;;;;;16.1;66.7;102160;;;;
2021/06/06 00:28:45;;;;;;;21.0;18.8;;;;;;;16.2;65.9;102160;;;;
2021/06/06 00:32:45;;;;;;;21.0;18.8;;;;;;;16.1;66.7;102160;;;;
2021/06/06 00:36:45;;;;;;;21.0;18.8;;;;;;;16.0;66.7;102160;;;;
2021/06/06 00:38:45;;;;;;;21.0;18.8;;;;;;;16.1;66.6;102160;;;;
2021/06/06 00:42:45;;;;;;;21.0;18.8;;;;;;;16.2;66.6;102160;;;;
2021/06/06 00:44:45;;;;;;;21.0;18.8;;;;;;;16.1;66.4;102160;;;;
2021/06/06 00:48:45;;;;;;;25.2;20.4;;;;;;;16.0;67.1;102160;;;;
2021/06/06 00:52:45;;;;;;;25.2;20.4;;;;;;;15.9;67.6;102160;;;;
2021/06/06 00:56:45;;;;;;;25.2;20.4;;;;;;;15.8;67.5;102160;;;;
2021/06/06 00:58:45;;;;;;;25.2;20.4;;;;;;;15.9;67.6;102160;;;;
2021/06/06 01:00:45;;;;;;;25.2;20.4;;;;;;;16.0;67.3;102150;;;;
2021/06/06 01:02:45;;;;;;;25.2;20.4;;;;;;;15.9;67.4;102160;;;;
2021/06/06 01:08:45;;;;;;;26.0;21.4;;;;;;;16.0;66.9;102150;;;;
2021/06/06 01:10:45;;;;;;;26.0;21.4;;;;;;;15.8;67.4;102160;;;;
2021/06/06 01:12:45;;;;;;;26.0;21.4;;;;;;;16.0;66.9;102160;;;;
2021/06/06 01:14:45;;;;;;;26.0;21.4;;;;;;;15.9;67.0;102160;;;;
2021/06/06 01:16:45;;;;;;;26.0;21.4;;;;;;;15.7;67.9;102160;;;;
2021/06/06 01:18:45;;;;;;;26.0;21.4;;;;;;;15.9;66.9;102160;;;;
2021/06/06 01:24:45;;;;;;;26.0;21.4;;;;;;;15.7;67.9;102160;;;;
2021/06/06 01:28:45;;;;;;;24.9;22.2;;;;;;;15.8;67.8;102160;;;;
2021/06/06 01:34:45;;;;;;;24.9;22.2;;;;;;;15.7;68.1;102150;;;;
2021/06/06 01:36:45;;;;;;;24.9;22.2;;;;;;;15.8;68.1;102150;;;;
2021/06/06 01:38:45;;;;;;;24.9;22.2;;;;;;;15.6;68.6;102150;;;;
2021/06/06 01:44:45;;;;;;;24.9;22.2;;;;;;;15.8;67.4;102160;;;;
2021/06/06 01:52:45;;;;;;;27.1;23.7;;;;;;;15.9;67.4;102150;;;;
2021/06/06 01:54:45;;;;;;;27.1;23.7;;;;;;;15.8;67.7;102160;;;;
2021/06/06 01:58:45;;;;;;;27.1;23.7;;;;;;;15.9;67.1;102150;;;;
2021/06/06 02:00:45;;;;;;;27.1;23.7;;;;;;;16.1;67.5;102160;;;;
2021/06/06 02:02:45;;;;;;;27.1;23.7;;;;;;;16.0;66.7;102150;;;;
2021/06/06 02:08:45;;;;;;;25.3;22.6;;;;;;;16.1;66.5;102150;;;;
2021/06/06 02:12:45;;;;;;;25.3;22.6;;;;;;;16.0;66.8;102150;;;;
2021/06/06 02:16:45;;;;;;;25.3;22.6;;;;;;;15.8;67.6;102150;;;;
2021/06/06 02:20:45;;;;;;;25.3;22.6;;;;;;;15.9;67.4;102150;;;;
2021/06/06 02:22:45;;;;;;;25.3;22.6;;;;;;;16.0;66.8;102150;;;;
2021/06/06 02:24:45;;;;;;;25.3;22.6;;;;;;;15.9;67.5;102150;;;;
2021/06/06 02:26:45;;;;;;;25.3;22.6;;;;;;;15.8;68.0;102150;;;;
2021/06/06 02:28:45;;;;;;;27.7;24.8;;;;;;;15.7;68.4;102150;;;;
2021/06/06 02:30:45;;;;;;;27.7;24.8;;;;;;;15.8;68.0;102150;;;;
2021/06/06 02:34:45;;;;;;;27.7;24.8;;;;;;;15.9;67.4;102150;;;;
2021/06/06 02:36:45;;;;;;;27.7;24.8;;;;;;;15.8;67.5;102150;;;;
2021/06/06 02:38:45;;;;;;;27.7;24.8;;;;;;;15.7;68.0;102140;;;;
2021/06/06 02:40:45;;;;;;;27.7;24.8;;;;;;;15.6;68.8;102150;;;;
2021/06/06 02:44:45;;;;;;;27.7;24.8;;;;;;;15.7;68.1;102150;;;;
2021/06/06 02:46:45;;;;;;;27.7;24.8;;;;;;;15.6;68.0;102150;;;;
2021/06/06 02:50:45;;;;;;;30.1;25.9;;;;;;;15.5;68.3;102150;;;;
2021/06/06 03:02:45;;;;;;;30.1;25.9;;;;;;;15.6;68.0;102150;;;;
2021/06/06 03:04:45;;;;;;;30.1;25.9;;;;;;;15.5;68.1;102140;;;;
2021/06/06 03:06:45;;;;;;;30.1;25.9;;;;;;;15.6;67.7;102150;;;;
2021/06/06 03:08:46;;;;;;;28.3;25.4;;;;;;;15.5;67.8;102150;;;;
2021/06/06 03:10:45;;;;;;;28.3;25.4;;;;;;;15.4;68.0;102150;;;;
2021/06/06 03:12:45;;;;;;;28.3;25.4;;;;;;;15.5;67.9;102150;;;;
2021/06/06 03:14:45;;;;;;;28.3;25.4;;;;;;;15.4;67.7;102140;;;;
2021/06/06 03:18:45;;;;;;;28.3;25.4;;;;;;;15.3;68.6;102140;;;;
2021/06/06 03:22:45;;;;;;;28.3;25.4;;;;;;;15.4;67.9;102140;;;;
2021/06/06 03:24:45;;;;;;;28.3;25.4;;;;;;;15.5;67.5;102140;;;;
2021/06/06 03:28:45;;;;;;;25.8;23.3;;;;;;;15.4;67.8;102150;;;;
2021/06/06 03:32:45;;;;;;;25.8;23.3;;;;;;;15.3;68.2;102150;;;;
2021/06/06 03:38:45;;;;;;;25.8;23.3;;;;;;;15.2;68.3;102150;;;;
2021/06/06 03:42:45;;;;;;;25.8;23.3;;;;;;;15.3;68.3;102150;;;;
2021/06/06 03:44:45;;;;;;;25.8;23.3;;;;;;;15.2;68.7;102150;;;;
2021/06/06 03:48:45;;;;;;;29.3;25.6;;;;;;;15.3;68.1;102150;;;;
2021/06/06 03:52:45;;;;;;;29.3;25.6;;;;;;;15.2;68.3;102150;;;;
2021/06/06 03:54:45;;;;;;;29.3;25.6;;;;;;;15.1;68.9;102150;;;;
2021/06/06 03:56:45;;;;;;;29.3;25.6;;;;;;;15.2;68.7;102160;;;;
2021/06/06 03:58:45;;;;;;;29.3;25.6;;;;;;;15.1;68.9;102150;;;;
2021/06/06 04:00:46;;;;;;;29.3;25.6;;;;;;;15.2;68.9;102150;;;;
2021/06/06 04:04:45;;;;;;;29.3;25.6;;;;;;;15.1;69.2;102150;;;;
2021/06/06 04:06:45;;;;;;;29.3;25.6;;;;;;;15.2;68.2;102150;;;;
2021/06/06 04:14:45;;;;;;;33.4;28.5;;;;;;;15.1;69.4;102150;;;;
2021/06/06 04:16:45;;;;;;;33.4;28.5;;;;;;;15.2;68.9;102150;;;;
2021/06/06 04:22:45;;;;;;;33.4;28.5;;;;;;;15.3;68.2;102160;;;;
2021/06/06 04:24:45;;;;;;;33.4;28.5;;;;;;;15.2;68.9;102160;;;;
2021/06/06 04:34:45;;;;;;;33.2;28.6;;;;;;;15.1;69.2;102160;;;;
2021/06/06 04:36:47;;;;;;;33.2;28.6;;;;;;;15.0;69.5;102160;;;;
2021/06/06 04:38:45;;;;;;;33.2;28.6;;;;;;;15.2;68.9;102160;;;;
2021/06/06 04:40:45;;;;;;;33.2;28.6;;;;;;;15.1;69.5;102150;;;;
2021/06/06 04:42:46;;;;;;;33.2;28.6;;;;;;;15.2;68.7;102160;;;;
2021/06/06 04:46:45;;;;;;;33.2;28.6;;;;;;;15.1;69.5;102150;;;;
2021/06/06 04:50:45;;;;;;;27.6;24.6;;;;;;;15.2;69.0;102160;;;;
2021/06/06 04:52:45;;;;;;;27.6;24.6;;;;;;;15.1;69.0;102160;;;;
2021/06/06 04:54:45;;;;;;;27.6;24.6;;;;;;;15.2;68.6;102170;;;;
2021/06/06 04:56:45;;;;;;;27.6;24.6;;;;;;;15.1;69.2;102170;;;;
2021/06/06 05:00:45;;;;;;;27.6;24.6;;;;;;;15.0;69.3;102160;;;;
2021/06/06 05:04:46;;;;;;;27.6;24.6;;;;;;;14.9;69.9;102170;;;;
2021/06/06 05:06:45;;;;;;;27.6;24.6;;;;;;;15.1;69.5;102160;;;;
2021/06/06 05:10:45;;;;;;;26.1;23.3;;;;;;;15.2;69.3;102160;;;;
2021/06/06 05:12:45;;;;;;;26.1;23.3;;;;;;;15.1;69.1;102160;;;;
2021/06/06 05:16:45;;;;;;;26.1;23.3;;;;;;;15.2;68.3;102160;;;;
2021/06/06 05:20:49;;;;;;;26.1;23.3;;;;;;;15.4;67.7;102170;;;;
2021/06/06 05:22:45;;;;;;;26.1;23.3;;;;;;;15.2;68.7;102170;;;;
2021/06/06 05:28:45;;;;;;;29.4;25.4;;;;;;;15.3;68.4;102170;;;;
2021/06/06 05:30:45;;;;;;;29.4;25.4;;;;;;;15.2;68.5;102170;;;;
2021/06/06 05:32:46;;;;;;;29.4;25.4;;;;;;;15.3;68.6;102170;;;;
2021/06/06 05:36:45;;;;;;;29.4;25.4;;;;;;;15.2;68.9;102180;;;;
2021/06/06 05:38:45;;;;;;;29.4;25.4;;;;;;;15.3;68.8;102170;;;;
2021/06/06 05:40:45;;;;;;;29.4;25.4;;;;;;;15.2;68.8;102170;;;;
2021/06/06 05:42:45;;;;;;;29.4;25.4;;;;;;;15.1;68.8;102170;;;;
2021/06/06 05:44:45;;;;;;;29.4;25.4;;;;;;;15.2;68.3;102170;;;;
2021/06/06 05:46:45;;;;;;;29.4;25.4;;;;;;;15.3;68.3;102170;;;;
2021/06/06 05:48:45;;;;;;;31.0;27.8;;;;;;;15.2;68.8;102180;;;;
2021/06/06 05:50:45;;;;;;;31.0;27.8;;;;;;;15.3;67.5;102180;;;;
2021/06/06 05:52:45;;;;;;;31.0;27.8;;;;;;;15.4;68.1;102180;;;;
2021/06/06 05:56:45;;;;;;;31.0;27.8;;;;;;;15.3;68.4;102180;;;;
2021/06/06 06:00:45;;;;;;;31.0;27.8;;;;;;;15.2;68.7;102180;;;;
2021/06/06 06:02:45;;;;;;;31.0;27.8;;;;;;;15.3;68.6;102180;;;;
2021/06/06 06:04:45;;;;;;;31.0;27.8;;;;;;;15.4;67.9;102180;;;;
2021/06/06 06:08:45;;;;;;;28.9;25.9;;;;;;;15.2;68.6;102180;;;;
2021/06/06 06:12:45;;;;;;;28.9;25.9;;;;;;;15.3;68.2;102180;;;;
2021/06/06 06:14:45;;;;;;;28.9;25.9;;;;;;;15.2;68.2;102180;;;;
2021/06/06 06:16:45;;;;;;;28.9;25.9;;;;;;;15.3;68.4;102180;;;;
2021/06/06 06:20:45;;;;;;;28.9;25.9;;;;;;;15.4;67.8;102190;;;;
2021/06/06 06:22:45;;;;;;;28.9;25.9;;;;;;;15.3;68.5;102190;;;;
2021/06/06 06:24:45;;;;;;;28.9;25.9;;;;;;;15.4;68.0;102190;;;;
2021/06/06 06:26:45;;;;;;;29.9;26.1;;;;;;;15.3;68.2;102190;;;;
2021/06/06 06:30:45;;;;;;;29.9;26.1;;;;;;;15.5;67.8;102190;;;;
2021/06/06 06:32:45;;;;;;;29.9;26.1;;;;;;;15.6;68.2;102180;;;;
2021/06/06 06:34:46;;;;;;;29.9;26.1;;;;;;;15.5;68.2;102180;;;;
2021/06/06 06:36:47;;;;;;;29.9;26.1;;;;;;;15.6;68.2;102180;;;;
2021/06/06 06:40:45;;;;;;;29.9;26.1;;;;;;;15.5;68.1;102180;;;;
2021/06/06 06:42:45;;;;;;;29.9;26.1;;;;;;;15.4;68.3;102180;;;;
2021/06/06 06:44:45;;;;;;;29.9;26.1;;;;;;;15.6;68.3;102180;;;;
2021/06/06 06:46:45;;;;;;;26.8;24.1;;;;;;;15.7;67.8;102180;;;;
2021/06/06 06:54:45;;;;;;;26.8;24.1;;;;;;;15.9;67.4;102170;;;;
2021/06/06 06:56:45;;;;;;;26.8;24.1;;;;;;;16.0;67.4;102180;;;;
2021/06/06 07:00:45;;;;;;;26.8;24.1;;;;;;;15.9;66.7;102180;;;;
2021/06/06 07:02:45;;;;;;;26.8;24.1;;;;;;;16.0;66.6;102180;;;;
2021/06/06 07:06:45;;;;;;;22.5;20.2;;;;;;;16.2;66.0;102190;;;;
2021/06/06 07:10:45;;;;;;;22.5;20.2;;;;;;;16.4;65.2;102190;;;;
2021/06/06 07:12:45;;;;;;;22.5;20.2;;;;;;;16.2;66.2;102190;;;;
2021/06/06 07:16:45;;;;;;;22.5;20.2;;;;;;;16.4;65.6;102190;;;;
2021/06/06 07:18:45;;;;;;;22.5;20.2;;;;;;;16.3;66.0;102200;;;;
2021/06/06 07:22:45;;;;;;;22.5;20.2;;;;;;;16.4;65.8;102210;;;;
2021/06/06 07:24:46;;;;;;;22.5;20.2;;;;;;;16.5;65.6;102200;;;;
2021/06/06 07:26:45;;;;;;;20.8;18.9;;;;;;;16.6;65.1;102200;;;;
2021/06/06 07:28:45;;;;;;;20.8;18.9;;;;;;;16.5;64.9;102200;;;;
2021/06/06 07:30:46;;;;;;;20.8;18.9;;;;;;;16.3;65.9;102200;;;;
2021/06/06 07:32:45;;;;;;;20.8;18.9;;;;;;;16.4;65.2;102200;;;;
2021/06/06 07:34:47;;;;;;;20.8;18.9;;;;;;;16.6;65.3;102200;;;;
2021/06/06 07:38:45;;;;;;;20.8;18.9;;;;;;;16.7;65.2;102190;;;;
2021/06/06 07:46:45;;;;;;;19.2;17.3;;;;;;;16.8;64.2;102190;;;;
2021/06/06 07:54:45;;;;;;;19.2;17.3;;;;;;;16.9;64.4;102190;;;;
2021/06/06 07:56:45;;;;;;;19.2;17.3;;;;;;;17.0;64.5;102200;;;;
2021/06/06 07:58:45;;;;;;;19.2;17.3;;;;;;;17.1;63.8;102200;;;;
2021/06/06 08:00:45;;;;;;;19.2;17.3;;;;;;;17.2;63.7;102200;;;;
2021/06/06 08:04:45;;;;;;;19.2;17.3;;;;;;;17.3;63.8;102200;;;;
2021/06/06 08:06:47;;;;;;;19.3;17.5;;;;;;;17.4;63.1;102200;;;;
2021/06/06 08:08:45;;;;;;;19.3;17.5;;;;;;;17.3;63.2;102200;;;;
2021/06/06 08:10:45;;;;;;;19.3;17.5;;;;;;;17.5;63.5;102200;;;;
2021/06/06 08:12:45;;;;;;;19.3;17.5;;;;;;;17.4;63.5;102190;;;;
2021/06/06 08:14:45;;;;;;;19.3;17.5;;;;;;;17.5;63.5;102200;;;;
2021/06/06 08:16:46;;;;;;;19.3;17.5;;;;;;;17.7;63.3;102200;;;;
2021/06/06 08:20:45;;;;;;;19.3;17.5;;;;;;;17.8;62.0;102190;;;;
2021/06/06 08:22:45;;;;;;;19.3;17.5;;;;;;;17.9;62.6;102200;;;;
2021/06/06 08:24:45;;;;;;;19.3;17.5;;;;;;;17.8;62.4;102200;;;;
2021/06/06 08:26:45;;;;;;;19.7;18.0;;;;;;;18.1;62.2;102200;;;;
2021/06/06 08:28:45;;;;;;;19.7;18.0;;;;;;;18.2;62.8;102200;;;;
2021/06/06 08:30:45;;;;;;;19.7;18.0;;;;;;;18.1;62.3;102200;;;;
2021/06/06 08:32:46;;;;;;;19.7;18.0;;;;;;;18.3;61.7;102200;;;;
2021/06/06 08:34:46;;;;;;;19.7;18.0;;;;;;;18.4;61.7;102200;;;;
2021/06/06 08:36:45;;;;;;;19.7;18.0;;;;;;;18.5;61.6;102200;;;;
2021/06/06 08:38:45;;;;;;;19.7;18.0;;;;;;;18.6;61.6;102200;;;;
2021/06/06 08:40:45;;;;;;;19.7;18.0;;;;;;;18.8;61.3;102210;;;;
2021/06/06 08:42:45;;;;;;;19.7;18.0;;;;;;;18.9;61.1;102210;;;;
2021/06/06 08:44:45;;;;;;;19.7;18.0;;;;;;;18.8;60.8;102200;;;;
2021/06/06 08:46:45;;;;;;;22.9;20.8;;;;;;;18.6;60.5;102200;;;;
2021/06/06 08:48:45;;;;;;;22.9;20.8;;;;;;;18.7;60.2;102210;;;;
2021/06/06 08:50:45;;;;;;;22.9;20.8;;;;;;;18.6;60.4;102210;;;;
2021/06/06 08:52:45;;;;;;;22.9;20.8;;;;;;;18.8;60.6;102210;;;;
2021/06/06 08:54:45;;;;;;;22.9;20.8;;;;;;;18.7;60.4;102200;;;;
2021/06/06 08:56:45;;;;;;;22.9;20.8;;;;;;;18.8;61.1;102200;;;;
2021/06/06 08:58:46;;;;;;;22.9;20.8;;;;;;;18.9;60.5;102210;;;;
2021/06/06 09:04:45;;;;;;;22.9;20.8;;;;;;;19.1;60.0;102210;;;;
2021/06/06 09:06:46;;;;;;;21.0;19.0;;;;;;;19.3;59.2;102210;;;;
2021/06/06 09:08:45;;;;;;;21.0;19.0;;;;;;;19.1;59.7;102210;;;;
2021/06/06 09:12:45;;;;;;;21.0;19.0;;;;;;;19.2;59.2;102210;;;;
2021/06/06 09:16:45;;;;;;;21.0;19.0;;;;;;;19.1;59.4;102220;;;;
2021/06/06 09:18:48;;;;;;;21.0;19.0;;;;;;;19.0;59.1;102220;;;;
2021/06/06 09:20:45;;;;;;;21.0;19.0;;;;;;;19.1;59.0;102220;;;;
2021/06/06 09:22:46;;;;;;;21.0;19.0;;;;;;;19.2;58.9;102220;;;;
2021/06/06 09:26:45;;;;;;;23.6;21.4;;;;;;;19.5;58.8;102220;;;;
2021/06/06 09:30:45;;;;;;;23.6;21.4;;;;;;;19.6;59.0;102220;;;;
2021/06/06 09:34:45;;;;;;;23.6;21.4;;;;;;;19.8;58.5;102220;;;;
2021/06/06 09:36:45;;;;;;;23.6;21.4;;;;;;;19.9;58.1;102220;;;;
2021/06/06 09:38:45;;;;;;;23.6;21.4;;;;;;;20.1;57.9;102220;;;;
2021/06/06 09:40:45;;;;;;;23.6;21.4;;;;;;;20.2;58.2;102210;;;;
2021/06/06 09:46:47;;;;;;;19.9;18.0;;;;;;;20.5;57.4;102210;;;;
2021/06/06 09:50:45;;;;;;;19.9;18.0;;;;;;;20.6;56.9;102210;;;;
2021/06/06 09:52:47;;;;;;;19.9;18.0;;;;;;;20.7;56.4;102220;;;;
2021/06/06 09:56:45;;;;;;;19.9;18.0;;;;;;;20.8;56.4;102220;;;;
2021/06/06 10:00:46;;;;;;;19.9;18.0;;;;;;;21.0;56.2;102220;;;;
2021/06/06 10:02:45;;;;;;;19.9;18.0;;;;;;;21.1;56.4;102220;;;;
2021/06/06 10:04:45;;;;;;;19.9;18.0;;;;;;;21.2;56.2;102230;;;;
2021/06/06 10:06:45;;;;;;;18.3;16.6;;;;;;;21.5;55.9;102230;;;;
2021/06/06 10:08:45;;;;;;;18.3;16.6;;;;;;;21.7;55.3;102230;;;;
2021/06/06 10:10:46;;;;;;;18.3;16.6;;;;;;;21.5;55.1;102220;;;;
2021/06/06 10:12:45;;;;;;;18.3;16.6;;;;;;;21.7;55.6;102230;;;;
2021/06/06 10:14:45;;;;;;;18.3;16.6;;;;;;;21.9;55.1;102230;;;;
2021/06/06 10:16:45;;;;;;;18.3;16.6;;;;;;;21.7;54.7;102230;;;;
2021/06/06 10:18:45;;;;;;;18.3;16.6;;;;;;;21.8;54.7;102230;;;;
2021/06/06 10:28:46;;;;;;;15.9;14.5;;;;;;;21.9;55.4;102230;;;;
2021/06/06 10:30:45;;;;;;;15.9;14.5;;;;;;;21.7;53.8;102230;;;;
2021/06/06 10:32:45;;;;;;;15.9;14.5;;;;;;;21.6;54.3;102230;;;;
2021/06/06 10:34:45;;;;;;;15.9;14.5;;;;;;;21.7;54.4;102220;;;;
2021/06/06 10:36:45;;;;;;;15.9;14.5;;;;;;;22.0;54.4;102220;;;;
2021/06/06 10:38:46;;;;;;;15.9;14.5;;;;;;;22.2;55.0;102220;;;;
2021/06/06 10:40:45;;;;;;;15.9;14.5;;;;;;;22.1;53.9;102220;;;;
2021/06/06 10:42:45;;;;;;;15.9;14.5;;;;;;;22.0;53.2;102220;;;;
2021/06/06 10:44:46;;;;;;;15.9;14.5;;;;;;;21.9;53.6;102210;;;;
2021/06/06 10:46:45;;;;;;;13.9;12.7;;;;;;;22.0;53.2;102210;;;;
2021/06/06 10:48:45;;;;;;;13.9;12.7;;;;;;;21.8;53.6;102220;;;;
2021/06/06 10:52:45;;;;;;;13.9;12.7;;;;;;;21.7;53.9;102210;;;;
2021/06/06 10:54:45;;;;;;;13.9;12.7;;;;;;;21.8;54.0;102210;;;;
2021/06/06 10:56:45;;;;;;;13.9;12.7;;;;;;;21.9;52.9;102210;;;;
2021/06/06 10:58:45;;;;;;;13.9;12.7;;;;;;;21.8;53.1;102220;;;;
2021/06/06 11:00:47;;;;;;;13.9;12.7;;;;;;;21.9;52.9;102210;;;;
2021/06/06 11:06:47;;;;;;;11.4;10.4;;;;;;;22.2;52.6;102210;;;;
2021/06/06 11:08:45;;;;;;;11.4;10.4;;;;;;;22.1;52.8;102210;;;;
2021/06/06 11:10:45;;;;;;;11.4;10.4;;;;;;;22.2;52.7;102210;;;;
2021/06/06 11:12:45;;;;;;;11.4;10.4;;;;;;;22.4;52.2;102210;;;;
2021/06/06 11:16:46;;;;;;;11.4;10.4;;;;;;;22.5;52.7;102200;;;;
2021/06/06 11:20:45;;;;;;;11.4;10.4;;;;;;;22.7;52.7;102190;;;;
2021/06/06 11:22:47;;;;;;;11.4;10.4;;;;;;;22.6;51.9;102190;;;;
2021/06/06 11:24:45;;;;;;;11.4;10.4;;;;;;;22.8;51.3;102190;;;;
2021/06/06 11:26:45;;;;;;;9.6;8.8;;;;;;;23.1;51.0;102190;;;;
2021/06/06 11:32:45;;;;;;;9.6;8.8;;;;;;;23.2;50.6;102180;;;;
2021/06/06 11:34:45;;;;;;;9.6;8.8;;;;;;;23.5;51.3;102180;;;;
2021/06/06 11:36:45;;;;;;;9.6;8.8;;;;;;;23.2;49.7;102180;;;;
2021/06/06 11:38:45;;;;;;;9.6;8.8;;;;;;;23.4;50.5;102180;;;;
2021/06/06 11:40:45;;;;;;;9.6;8.8;;;;;;;23.1;50.4;102180;;;;
2021/06/06 11:42:45;;;;;;;9.6;8.8;;;;;;;22.8;50.6;102190;;;;
2021/06/06 11:44:47;;;;;;;9.6;8.8;;;;;;;23.1;50.8;102180;;;;
2021/06/06 11:46:45;;;;;;;10.1;9.2;;;;;;;23.2;50.4;102180;;;;
2021/06/06 11:48:51;;;;;;;10.1;9.2;;;;;;;22.9;50.8;102180;;;;
2021/06/06 11:50:45;;;;;;;10.1;9.2;;;;;;;22.8;51.1;102180;;;;
2021/06/06 11:54:45;;;;;;;10.1;9.2;;;;;;;22.6;50.0;102180;;;;
2021/06/06 11:56:45;;;;;;;10.1;9.2;;;;;;;22.8;49.5;102180;;;;
2021/06/06 11:58:45;;;;;;;10.1;9.2;;;;;;;22.9;50.4;102180;;;;
2021/06/06 12:00:45;;;;;;;10.1;9.2;;;;;;;23.0;51.4;102170;;;;
2021/06/06 12:02:45;;;;;;;10.1;9.2;;;;;;;23.1;50.3;102170;;;;
2021/06/06 12:04:45;;;;;;;10.1;9.2;;;;;;;23.0;50.6;102170;;;;
2021/06/06 12:08:45;;;;;;;10.1;9.0;;;;;;;22.9;51.4;102170;;;;
2021/06/06 12:10:45;;;;;;;10.1;9.0;;;;;;;23.0;49.9;102170;;;;
2021/06/06 12:12:45;;;;;;;10.1;9.0;;;;;;;23.2;50.3;102160;;;;
2021/06/06 12:14:45;;;;;;;10.1;9.0;;;;;;;23.1;49.6;102160;;;;
2021/06/06 12:16:45;;;;;;;10.1;9.0;;;;;;;23.0;49.6;102170;;;;
2021/06/06 12:18:45;;;;;;;10.1;9.0;;;;;;;23.1;49.6;102170;;;;
2021/06/06 12:20:45;;;;;;;10.1;9.0;;;;;;;22.9;49.7;102170;;;;
2021/06/06 12:26:45;;;;;;;6.6;6.0;;;;;;;22.8;50.2;102170;;;;
2021/06/06 12:30:45;;;;;;;6.6;6.0;;;;;;;22.7;49.8;102180;;;;
2021/06/06 12:34:45;;;;;;;6.6;6.0;;;;;;;22.6;50.5;102180;;;;
2021/06/06 12:38:45;;;;;;;6.6;6.0;;;;;;;22.5;50.1;102180;;;;
2021/06/06 12:42:45;;;;;;;6.6;6.0;;;;;;;22.4;49.6;102180;;;;
2021/06/06 12:44:47;;;;;;;6.6;6.0;;;;;;;22.2;51.2;102180;;;;
2021/06/06 12:46:46;;;;;;;6.7;6.1;;;;;;;22.4;50.6;102180;;;;
2021/06/06 12:48:45;;;;;;;6.7;6.1;;;;;;;22.5;50.1;102180;;;;
2021/06/06 12:52:45;;;;;;;6.7;6.1;;;;;;;22.7;50.4;102180;;;;
2021/06/06 12:54:45;;;;;;;6.7;6.1;;;;;;;22.5;49.7;102180;;;;
2021/06/06 12:56:45;;;;;;;6.7;6.1;;;;;;;22.6;50.3;102180;;;;
2021/06/06 12:58:45;;;;;;;6.7;6.1;;;;;;;22.8;50.2;102180;;;;
2021/06/06 13:00:46;;;;;;;6.7;6.1;;;;;;;22.9;50.7;102180;;;;
2021/06/06 13:04:45;;;;;;;6.7;6.1;;;;;;;23.0;50.7;102170;;;;
2021/06/06 13:08:45;;;;;;;5.9;5.3;;;;;;;23.3;49.8;102170;;;;
2021/06/06 13:10:45;;;;;;;5.9;5.3;;;;;;;23.1;49.6;102170;;;;
2021/06/06 13:12:47;;;;;;;5.9;5.3;;;;;;;23.0;49.6;102170;;;;
2021/06/06 13:14:45;;;;;;;5.9;5.3;;;;;;;23.1;48.9;102170;;;;
2021/06/06 13:16:45;;;;;;;5.9;5.3;;;;;;;22.7;49.1;102170;;;;
2021/06/06 13:20:45;;;;;;;5.9;5.3;;;;;;;22.9;50.1;102170;;;;
2021/06/06 13:22:45;;;;;;;5.9;5.3;;;;;;;23.2;48.5;102170;;;;
2021/06/06 13:24:46;;;;;;;5.9;5.3;;;;;;;23.1;49.1;102170;;;;
2021/06/06 13:28:45;;;;;;;5.3;4.8;;;;;;;23.0;49.6;102170;;;;
2021/06/06 13:30:46;;;;;;;5.3;4.8;;;;;;;23.1;49.9;102160;;;;
2021/06/06 13:32:45;;;;;;;5.3;4.8;;;;;;;23.0;49.4;102160;;;;
2021/06/06 13:36:45;;;;;;;5.3;4.8;;;;;;;23.1;49.4;102160;;;;
2021/06/06 13:38:45;;;;;;;5.3;4.8;;;;;;;23.2;49.0;102160;;;;
2021/06/06 13:40:45;;;;;;;5.3;4.8;;;;;;;23.4;48.8;102160;;;;
2021/06/06 13:42:45;;;;;;;5.3;4.8;;;;;;;23.5;47.6;102150;;;;
2021/06/06 13:46:47;;;;;;;5.5;5.1;;;;;;;23.4;48.2;102160;;;;
2021/06/06 13:48:45;;;;;;;5.5;5.1;;;;;;;23.6;47.6;102150;;;;
2021/06/06 13:50:45;;;;;;;5.5;5.1;;;;;;;23.7;47.8;102150;;;;
2021/06/06 13:52:45;;;;;;;5.5;5.1;;;;;;;23.8;48.4;102160;;;;
2021/06/06 13:54:45;;;;;;;5.5;5.1;;;;;;;24.0;47.6;102160;;;;
2021/06/06 14:00:45;;;;;;;5.5;5.1;;;;;;;24.1;46.6;102160;;;;
2021/06/06 14:02:45;;;;;;;5.5;5.1;;;;;;;24.2;45.7;102150;;;;
2021/06/06 14:04:45;;;;;;;5.5;5.1;;;;;;;23.9;45.4;102150;;;;
2021/06/06 14:06:45;;;;;;;3.9;3.5;;;;;;;24.2;47.0;102150;;;;
2021/06/06 14:08:45;;;;;;;3.9;3.5;;;;;;;24.3;44.8;102150;;;;
2021/06/06 14:10:45;;;;;;;3.9;3.5;;;;;;;24.4;46.3;102150;;;;
2021/06/06 14:12:45;;;;;;;3.9;3.5;;;;;;;24.1;45.4;102150;;;;
2021/06/06 14:14:45;;;;;;;3.9;3.5;;;;;;;24.2;45.0;102150;;;;
2021/06/06 14:16:47;;;;;;;3.9;3.5;;;;;;;24.1;45.2;102150;;;;
2021/06/06 14:20:45;;;;;;;3.9;3.5;;;;;;;24.0;46.3;102150;;;;
2021/06/06 14:22:46;;;;;;;3.9;3.5;;;;;;;24.1;45.3;102150;;;;
2021/06/06 14:24:45;;;;;;;3.9;3.5;;;;;;;24.0;44.8;102150;;;;
2021/06/06 14:26:45;;;;;;;2.2;2.0;;;;;;;24.1;44.7;102150;;;;
2021/06/06 14:28:45;;;;;;;2.2;2.0;;;;;;;23.9;45.0;102150;;;;
2021/06/06 14:30:46;;;;;;;2.2;2.0;;;;;;;24.0;44.7;102150;;;;
2021/06/06 14:34:45;;;;;;;2.2;2.0;;;;;;;23.9;44.5;102140;;;;
2021/06/06 14:36:47;;;;;;;2.2;2.0;;;;;;;24.2;42.4;102140;;;;
2021/06/06 14:38:45;;;;;;;2.2;2.0;;;;;;;24.5;42.9;102140;;;;
2021/06/06 14:40:45;;;;;;;2.2;2.0;;;;;;;24.9;42.2;102140;;;;
2021/06/06 14:42:45;;;;;;;2.2;2.0;;;;;;;24.8;42.3;102140;;;;
2021/06/06 14:44:45;;;;;;;2.2;2.0;;;;;;;25.0;42.5;102130;;;;
2021/06/06 14:46:45;;;;;;;2.1;1.3;;;;;;;24.8;41.2;102130;;;;
2021/06/06 14:48:45;;;;;;;2.1;1.3;;;;;;;24.9;41.0;102130;;;;
2021/06/06 14:50:45;;;;;;;2.1;1.3;;;;;;;24.5;39.0;102140;;;;
2021/06/06 14:52:45;;;;;;;2.1;1.3;;;;;;;24.6;40.3;102130;;;;
2021/06/06 14:54:45;;;;;;;2.1;1.3;;;;;;;24.9;40.2;102130;;;;
2021/06/06 14:56:45;;;;;;;2.1;1.3;;;;;;;25.1;42.2;102120;;;;
2021/06/06 14:58:45;;;;;;;2.1;1.3;;;;;;;25.3;40.1;102130;;;;
2021/06/06 15:00:45;;;;;;;2.1;1.3;;;;;;;25.6;41.8;102130;;;;
2021/06/06 15:02:45;;;;;;;2.1;1.3;;;;;;;25.7;43.3;102130;;;;
2021/06/06 15:04:46;;;;;;;2.1;1.3;;;;;;;25.8;41.2;102130;;;;
2021/06/06 15:06:45;;;;;;;2.2;1.3;;;;;;;26.2;40.2;102130;;;;
2021/06/06 15:10:45;;;;;;;2.2;1.3;;;;;;;26.4;40.8;102120;;;;
2021/06/06 15:12:45;;;;;;;2.2;1.3;;;;;;;26.8;38.8;102120;;;;
2021/06/06 15:14:45;;;;;;;2.2;1.3;;;;;;;27.1;39.5;102110;;;;
2021/06/06 15:16:46;;;;;;;2.2;1.3;;;;;;;27.3;37.9;102120;;;;
2021/06/06 15:18:45;;;;;;;2.2;1.3;;;;;;;26.6;37.8;102130;;;;
2021/06/06 15:20:45;;;;;;;2.2;1.3;;;;;;;27.0;40.7;102120;;;;
2021/06/06 15:24:47;;;;;;;2.2;1.3;;;;;;;26.8;36.7;102120;;;;
2021/06/06 15:26:46;;;;;;;2.4;1.3;;;;;;;27.0;38.2;102120;;;;
2021/06/06 15:28:45;;;;;;;2.4;1.3;;;;;;;27.2;37.1;102120;;;;
2021/06/06 15:30:45;;;;;;;2.4;1.3;;;;;;;27.5;34.7;102110;;;;
2021/06/06 15:32:45;;;;;;;2.4;1.3;;;;;;;27.7;37.7;102120;;;;
2021/06/06 15:34:45;;;;;;;2.4;1.3;;;;;;;27.8;36.3;102110;;;;
2021/06/06 15:36:45;;;;;;;2.4;1.3;;;;;;;28.0;35.2;102110;;;;
2021/06/06 15:38:48;;;;;;;2.4;1.3;;;;;;;27.5;34.6;102110;;;;
2021/06/06 15:40:45;;;;;;;2.4;1.3;;;;;;;26.9;34.1;102110;;;;
2021/06/06 15:42:45;;;;;;;2.4;1.3;;;;;;;27.4;35.6;102110;;;;
2021/06/06 15:44:45;;;;;;;2.4;1.3;;;;;;;27.9;35.2;102110;;;;
2021/06/06 15:46:46;;;;;;;1.6;1.1;;;;;;;28.2;35.6;102100;;;;
2021/06/06 15:48:49;;;;;;;1.6;1.1;;;;;;;28.1;34.3;102100;;;;
2021/06/06 15:50:45;;;;;;;1.6;1.1;;;;;;;27.3;34.6;102100;;;;
2021/06/06 15:52:45;;;;;;;1.6;1.1;;;;;;;28.1;36.0;102100;;;;
2021/06/06 15:54:45;;;;;;;1.6;1.1;;;;;;;27.8;32.7;102100;;;;
2021/06/06 15:56:45;;;;;;;1.6;1.1;;;;;;;28.0;36.8;102110;;;;
2021/06/06 15:58:45;;;;;;;1.6;1.1;;;;;;;28.2;34.5;102100;;;;
2021/06/06 16:00:47;;;;;;;1.6;1.1;;;;;;;27.9;35.1;102110;;;;
2021/06/06 16:02:46;;;;;;;1.6;1.1;;;;;;;28.0;33.0;102110;;;;
2021/06/06 16:04:46;;;;;;;1.6;1.1;;;;;;;28.5;31.1;102100;;;;
2021/06/06 16:10:45;;;;;;;1.6;1.4;;;;;;;29.3;33.4;102100;;;;
2021/06/06 16:12:46;;;;;;;1.6;1.4;;;;;;;29.1;32.5;102100;;;;
2021/06/06 16:14:45;;;;;;;1.6;1.4;;;;;;;29.2;32.3;102100;;;;
2021/06/06 16:16:46;;;;;;;1.6;1.4;;;;;;;29.7;32.3;102100;;;;
2021/06/06 16:20:45;;;;;;;1.6;1.4;;;;;;;29.6;32.3;102100;;;;
2021/06/06 16:22:45;;;;;;;1.6;1.4;;;;;;;29.8;32.1;102100;;;;
2021/06/06 16:24:45;;;;;;;1.6;1.4;;;;;;;30.0;32.2;102090;;;;
2021/06/06 16:26:45;;;;;;;2.0;1.7;;;;;;;29.7;30.5;102090;;;;
2021/06/06 16:28:45;;;;;;;2.0;1.7;;;;;;;29.9;30.1;102090;;;;
2021/06/06 16:32:45;;;;;;;2.0;1.7;;;;;;;30.3;30.0;102090;;;;
2021/06/06 16:34:45;;;;;;;2.0;1.7;;;;;;;30.2;30.1;102080;;;;
2021/06/06 16:36:45;;;;;;;2.0;1.7;;;;;;;30.1;30.0;102080;;;;
2021/06/06 16:38:45;;;;;;;2.0;1.7;;;;;;;30.2;29.3;102080;;;;
2021/06/06 16:40:45;;;;;;;2.0;1.7;;;;;;;30.7;32.0;102080;;;;
2021/06/06 16:50:47;;;;;;;3.7;2.4;;;;;;;30.8;30.1;102080;;;;
2021/06/06 16:52:45;;;;;;;3.7;2.4;;;;;;;30.4;31.4;102080;;;;
2021/06/06 16:54:46;;;;;;;3.7;2.4;;;;;;;30.2;31.4;102080;;;;
2021/06/06 16:58:45;;;;;;;3.7;2.4;;;;;;;30.3;31.8;102080;;;;
2021/06/06 17:00:45;;;;;;;3.7;2.4;;;;;;;30.1;31.4;102080;;;;
2021/06/06 17:02:45;;;;;;;3.7;2.4;;;;;;;30.2;31.9;102080;;;;
2021/06/06 17:04:45;;;;;;;3.7;2.4;;;;;;;30.4;30.7;102070;;;;
2021/06/06 17:06:45;;;;;;;3.1;1.5;;;;;;;30.0;31.9;102070;;;;
2021/06/06 17:08:45;;;;;;;3.1;1.5;;;;;;;30.6;30.4;102070;;;;
2021/06/06 17:10:46;;;;;;;3.1;1.5;;;;;;;29.8;29.6;102080;;;;
2021/06/06 17:14:45;;;;;;;3.1;1.5;;;;;;;29.9;30.7;102070;;;;
2021/06/06 17:16:45;;;;;;;3.1;1.5;;;;;;;29.2;30.7;102070;;;;
2021/06/06 17:18:45;;;;;;;3.1;1.5;;;;;;;29.6;31.1;102080;;;;
2021/06/06 17:20:45;;;;;;;3.1;1.5;;;;;;;29.7;31.2;102080;;;;
2021/06/06 17:22:45;;;;;;;3.1;1.5;;;;;;;29.4;31.0;102070;;;;
2021/06/06 17:26:53;;;;;;;2.4;1.3;;;;;;;29.8;30.0;102080;;;;
2021/06/06 17:28:45;;;;;;;2.4;1.3;;;;;;;29.5;30.6;102080;;;;
2021/06/06 17:30:45;;;;;;;2.4;1.3;;;;;;;29.4;30.7;102070;;;;
2021/06/06 17:32:46;;;;;;;2.4;1.3;;;;;;;29.5;29.8;102070;;;;
2021/06/06 17:36:45;;;;;;;2.4;1.3;;;;;;;29.7;29.8;102070;;;;